createdAt,value
2023-05-22T04:31:08.099Z,100337.69
2023-05-22T04:33:48.401Z,100337.69
2023-05-22T04:36:26.118Z,100349.16
2023-05-22T04:39:02.658Z,100343.41
2023-05-22T04:41:37.799Z,100342.91
2023-05-22T04:44:12.542Z,100337.34
2023-05-22T04:46:48.266Z,100352.63
2023-05-22T04:49:24.896Z,100348.59
2023-05-22T04:51:59.331Z,100355.66
2023-05-22T04:54:34.522Z,100344.00
2023-05-22T04:57:08.902Z,100351.88
2023-05-22T04:59:44.085Z,100352.13
2023-05-22T05:02:19.855Z,100350.88
2023-05-22T05:04:54.993Z,100352.91
2023-05-22T05:07:29.603Z,100352.19
2023-05-22T05:10:04.948Z,100344.06
2023-05-22T05:12:39.343Z,100354.97
2023-05-22T05:15:14.114Z,100344.59
2023-05-22T05:17:49.957Z,100348.87
2023-05-22T05:20:25.170Z,100345.31
2023-05-22T05:22:59.509Z,100347.59
2023-05-22T05:25:36.101Z,100346.78
2023-05-22T05:28:12.162Z,100347.75
2023-05-22T05:30:47.079Z,100350.31
2023-05-22T05:33:23.102Z,100348.03
2023-05-22T05:35:59.021Z,100348.13
2023-05-22T05:38:33.526Z,100340.25
2023-05-22T05:41:08.400Z,100343.25
2023-05-22T05:43:43.349Z,100348.63
2023-05-22T05:46:19.339Z,100346.94
2023-05-22T05:48:56.170Z,100348.81
2023-05-22T05:51:31.249Z,100347.50
2023-05-22T05:54:06.169Z,100352.59
2023-05-22T05:56:41.393Z,100346.25
2023-05-22T05:59:16.188Z,100355.44
2023-05-22T06:02:55.418Z,100342.78
2023-05-22T06:05:31.238Z,100342.78
2023-05-22T06:08:08.827Z,100355.72
2023-05-22T06:10:43.611Z,100357.41
2023-05-22T06:13:18.150Z,100347.41
2023-05-22T06:15:53.175Z,100349.88
2023-05-22T06:18:29.095Z,100342.91
2023-05-22T06:21:03.908Z,100344.41
2023-05-22T06:23:38.608Z,100349.53
2023-05-22T06:26:14.105Z,100345.28
2023-05-22T06:28:48.695Z,100345.50
2023-05-22T06:31:24.622Z,100338.41
2023-05-22T06:34:00.943Z,100340.84
2023-05-22T06:36:35.989Z,100346.78
2023-05-22T06:39:10.450Z,100341.28
2023-05-22T06:41:47.014Z,100347.31
2023-05-22T06:44:21.564Z,100349.81
2023-05-22T06:46:57.764Z,100354.81
2023-05-22T06:49:33.866Z,100355.66
2023-05-22T06:52:08.667Z,100351.50
2023-05-22T06:54:44.137Z,100350.88
2023-05-22T06:57:19.815Z,100350.13
2023-05-22T06:59:54.435Z,100349.69
2023-05-22T07:02:30.311Z,100349.56
2023-05-22T07:05:08.088Z,100343.34
2023-05-22T07:07:44.626Z,100347.88
2023-05-22T07:10:19.559Z,100345.28
2023-05-22T07:12:54.302Z,100349.22
2023-05-22T07:15:28.943Z,100346.66
2023-05-22T07:18:04.066Z,100342.56
2023-05-22T07:20:42.913Z,100333.56
2023-05-22T07:23:20.380Z,100333.03
2023-05-22T07:25:54.781Z,100329.91
2023-05-22T07:28:32.109Z,100332.28
2023-05-22T07:31:06.977Z,100333.13
2023-05-22T07:33:41.769Z,100334.97
2023-05-22T07:36:24.765Z,100337.56
2023-05-22T07:39:05.822Z,100333.09
2023-05-22T07:41:41.224Z,100326.41
2023-05-22T07:44:16.664Z,100324.25
2023-05-22T07:46:52.095Z,100331.69
2023-05-22T07:49:26.988Z,100333.97
2023-05-22T07:52:02.835Z,100331.91
2023-05-22T07:54:37.931Z,100331.56
2023-05-22T07:57:12.878Z,100330.34
2023-05-22T07:59:48.997Z,100335.31
2023-05-22T08:02:23.822Z,100332.59
2023-05-22T08:04:58.561Z,100346.31
2023-05-22T08:07:34.444Z,100346.22
2023-05-22T08:10:16.030Z,100347.00
2023-05-22T08:12:50.414Z,100345.94
2023-05-22T08:15:25.161Z,100346.88
2023-05-22T08:17:59.621Z,100349.34
2023-05-22T08:20:34.484Z,100341.13
2023-05-22T08:23:10.243Z,100344.97
2023-05-22T08:25:45.095Z,100343.53
2023-05-22T08:28:19.596Z,100339.41
2023-05-22T08:30:54.543Z,100332.03
2023-05-22T08:33:28.904Z,100340.41
2023-05-22T08:36:03.654Z,100333.88
2023-05-22T08:38:39.828Z,100334.88
2023-05-22T08:41:15.769Z,100335.22
2023-05-22T08:43:50.189Z,100334.47
2023-05-22T08:46:29.453Z,100327.38
2023-05-22T10:09:47.093Z,100285.94
2023-05-22T10:12:24.910Z,100285.94
2023-05-22T10:15:01.723Z,100293.16
2023-05-22T10:17:38.152Z,100295.03
2023-05-22T10:20:14.352Z,100291.28
2023-05-22T10:22:50.153Z,100284.47
2023-05-22T10:25:26.619Z,100286.88
2023-05-22T10:28:01.969Z,100292.03
2023-05-22T10:30:45.468Z,100283.53
2023-05-22T10:33:26.278Z,100279.94
2023-05-22T10:36:05.284Z,100285.94
2023-05-22T10:38:57.684Z,100277.69
2023-05-22T10:41:33.850Z,100281.06
2023-05-22T10:44:08.588Z,100272.53
2023-05-22T10:46:50.231Z,100271.44
2023-05-22T10:49:26.228Z,100277.84
2023-05-22T10:52:00.927Z,100270.87
2023-05-22T10:54:41.792Z,100262.00
2023-05-22T10:57:18.964Z,100264.69
2023-05-22T11:00:09.702Z,100256.12
2023-05-22T11:02:45.360Z,100249.56
2023-05-22T11:05:37.451Z,100250.37
2023-05-22T11:08:47.461Z,100251.22
2023-05-22T11:11:27.112Z,100244.06
2023-05-22T11:14:06.103Z,100240.97
2023-05-22T11:16:40.989Z,100227.16
2023-05-22T11:21:54.374Z,100226.38
2023-05-22T11:24:34.162Z,100224.47
2023-05-22T11:27:09.238Z,100222.50
2023-05-22T12:46:03.125Z,100161.12
2023-05-22T12:48:38.228Z,100161.12
2023-05-22T12:51:13.719Z,100168.41
2023-05-22T12:53:48.471Z,100158.03
2023-05-22T12:56:23.128Z,100154.44
2023-05-22T12:58:58.158Z,100151.81
2023-05-22T13:01:34.309Z,100153.97
2023-05-22T13:04:09.122Z,100155.91
2023-05-22T13:06:43.499Z,100150.06
2023-05-22T13:09:19.105Z,100154.38
2023-05-22T13:11:53.653Z,100143.03
2023-05-22T13:14:28.363Z,100145.78
2023-05-22T13:17:04.205Z,100146.47
2023-05-22T13:19:38.973Z,100146.53
2023-05-22T13:22:13.343Z,100140.19
2023-05-22T13:24:48.102Z,100140.69
2023-05-22T13:27:22.489Z,100143.19
2023-05-22T13:29:57.174Z,100140.00
2023-05-22T13:32:35.227Z,100138.34
2023-05-22T13:35:10.952Z,100129.00
2023-05-22T13:37:45.445Z,100132.31
2023-05-22T13:40:21.183Z,100122.78
2023-05-22T13:42:55.730Z,100129.94
2023-05-22T13:45:31.300Z,100113.69
2023-05-22T13:48:07.190Z,100113.84
2023-05-22T13:50:41.952Z,100126.06
2023-05-22T13:53:25.386Z,100124.34
2023-05-22T13:56:00.229Z,100118.16
2023-05-22T13:58:34.535Z,100114.72
2023-05-22T14:01:10.782Z,100110.22
2023-05-22T14:04:33.442Z,100099.03
2023-05-22T14:07:08.509Z,100099.03
2023-05-22T14:09:42.928Z,100105.00
2023-05-22T14:12:17.686Z,100106.34
2023-05-22T14:14:52.474Z,100108.75
2023-05-22T14:17:27.214Z,100102.81
2023-05-22T14:20:03.957Z,100095.63
2023-05-22T14:22:55.372Z,100111.44
2023-05-22T14:25:31.346Z,100093.56
2023-05-22T14:28:06.374Z,100099.16
2023-05-22T14:30:41.026Z,100092.38
2023-05-22T14:33:15.766Z,100086.06
2023-05-22T14:35:51.885Z,100095.03
2023-05-22T14:38:27.377Z,100089.28
2023-05-22T14:41:01.821Z,100078.38
2023-05-22T14:43:37.459Z,100082.19
2023-05-22T14:46:12.583Z,100087.34
2023-05-22T14:48:47.292Z,100081.47
2023-05-22T14:51:23.199Z,100085.88
2023-05-22T14:53:58.196Z,100086.50
2023-05-22T14:56:32.603Z,100082.62
2023-05-22T14:59:07.364Z,100073.44
2023-05-22T15:01:41.797Z,100077.41
2023-05-22T15:04:16.600Z,100074.75
2023-05-22T15:06:52.387Z,100076.53
2023-05-22T15:09:27.223Z,100073.56
2023-05-22T15:12:01.808Z,100068.69
2023-05-22T15:14:36.897Z,100076.25
2023-05-22T15:17:11.322Z,100071.88
2023-05-22T15:19:48.861Z,100060.56
2023-05-22T15:22:24.832Z,100064.16
2023-05-22T15:25:07.065Z,100059.09
2023-05-22T15:27:42.105Z,100067.09
2023-05-22T15:30:17.397Z,100063.06
2023-05-22T15:32:52.090Z,100062.06
2023-05-22T15:35:26.807Z,100062.19
2023-05-22T20:11:30.984Z,100150.97
2023-05-22T20:14:05.974Z,100150.97
2023-05-22T20:16:40.439Z,100154.22
2023-05-22T20:19:15.501Z,100150.16
2023-05-22T20:21:50.941Z,100148.63
2023-05-22T20:24:26.475Z,100148.41
2023-05-22T20:27:04.868Z,100143.97
2023-05-22T20:29:39.464Z,100138.09
2023-05-22T20:32:13.999Z,100138.41
2023-05-22T20:34:48.814Z,100148.84
2023-05-22T20:37:23.261Z,100146.63
2023-05-22T20:40:09.575Z,100148.06
2023-05-22T20:42:46.267Z,100138.69
2023-05-22T20:45:20.988Z,100140.28
2023-05-22T20:47:55.367Z,100142.31
2023-05-22T20:50:30.065Z,100136.44
2023-05-22T20:53:06.496Z,100151.38
2023-05-22T20:55:41.685Z,100146.97
2023-05-22T20:58:19.966Z,100148.28
2023-05-22T21:00:54.735Z,100146.84
2023-05-22T21:03:29.063Z,100154.38
2023-05-22T21:06:03.771Z,100150.34
2023-05-22T21:08:38.325Z,100153.78
2023-05-22T21:11:13.194Z,100154.00
2023-05-22T21:13:49.089Z,100155.75
2023-05-22T21:16:23.850Z,100154.84
2023-05-22T21:18:58.290Z,100154.38
2023-05-22T21:21:33.296Z,100147.06
2023-05-22T21:24:08.706Z,100142.66
2023-05-22T21:26:43.604Z,100139.41
2023-05-22T21:29:19.312Z,100133.09
2023-05-22T21:31:54.142Z,100135.06
2023-05-22T21:34:28.572Z,100135.81
2023-05-22T21:37:03.276Z,100151.28
2023-05-22T21:39:37.559Z,100140.62
2023-05-22T21:42:12.428Z,100143.06
2023-05-22T21:44:48.397Z,100141.47
2023-05-22T21:47:23.126Z,100150.75
2023-05-22T21:49:57.624Z,100150.44
2023-05-22T21:52:32.273Z,100141.69
2023-05-22T21:55:07.426Z,100147.66
2023-05-22T21:57:42.248Z,100144.19
2023-05-22T22:00:19.030Z,100146.97
2023-05-22T22:04:36.808Z,100143.91
2023-05-22T22:07:12.827Z,100143.91
2023-05-22T22:09:47.184Z,100149.37
2023-05-22T22:12:21.872Z,100148.44
2023-05-22T22:14:56.217Z,100147.62
2023-05-22T22:17:30.936Z,100149.37
2023-05-22T22:20:08.607Z,100147.22
2023-05-22T22:22:43.522Z,100142.41
2023-05-22T22:25:17.954Z,100143.03
2023-05-22T22:27:52.820Z,100148.91
2023-05-22T22:30:27.184Z,100142.97
2023-05-22T22:33:01.937Z,100149.47
2023-05-22T22:35:37.941Z,100149.81
2023-05-22T22:38:12.639Z,100154.03
2023-05-22T22:40:47.144Z,100152.47
2023-05-22T22:43:21.844Z,100157.81
2023-05-22T22:45:56.186Z,100158.06
2023-05-22T22:48:30.898Z,100159.41
2023-05-22T22:51:06.925Z,100158.91
2023-05-22T22:53:41.838Z,100155.94
2023-05-22T22:56:16.412Z,100152.53
2023-05-22T22:58:51.062Z,100149.91
2023-05-22T23:01:25.712Z,100156.44
2023-05-22T23:04:00.474Z,100147.97
2023-05-22T23:06:36.466Z,100148.66
2023-05-22T23:09:11.466Z,100149.78
2023-05-22T23:11:45.901Z,100156.53
2023-05-22T23:14:20.580Z,100145.56
2023-05-22T23:16:55.290Z,100149.34
2023-05-22T23:19:29.998Z,100146.13
2023-05-22T23:22:05.856Z,100157.75
2023-05-22T23:24:40.532Z,100145.34
2023-05-22T23:27:14.856Z,100147.69
2023-05-22T23:29:49.828Z,100150.56
2023-05-22T23:32:24.179Z,100146.81
2023-05-22T23:34:58.909Z,100154.09
2023-05-22T23:37:34.630Z,100143.44
2023-05-22T23:40:10.528Z,100145.25
2023-05-22T23:42:44.854Z,100149.78
2023-05-22T23:45:19.502Z,100151.75
2023-05-22T23:47:53.951Z,100147.78
2023-05-22T23:50:28.622Z,100149.88
2023-05-22T23:53:04.481Z,100146.09
2023-05-22T23:55:39.264Z,100153.47
2023-05-22T23:58:13.829Z,100149.06
